sensor_id;sensor_type;location;lat;lon;timestamp;pressure;altitude;pressure_sealevel;temperature;humidity
64053;BME280;50299;49.524;8.536;2024-03-02T00:02:22;99320.81;;;2.59;69.88
64053;BME280;50299;49.524;8.536;2024-03-02T00:04:49;99316.47;;;2.58;69.79
64053;BME280;50299;49.524;8.536;2024-03-02T00:07:15;99320.63;;;2.56;69.36
64053;BME280;50299;49.524;8.536;2024-03-02T00:09:41;99319.81;;;2.55;68.82
64053;BME280;50299;49.524;8.536;2024-03-02T00:12:11;99305.44;;;2.50;69.30
64053;BME280;50299;49.524;8.536;2024-03-02T00:14:42;99308.28;;;2.44;69.81
64053;BME280;50299;49.524;8.536;2024-03-02T00:17:17;99309.09;;;2.45;68.93
64053;BME280;50299;49.524;8.536;2024-03-02T00:19:47;99302.81;;;2.44;70.03
64053;BME280;50299;49.524;8.536;2024-03-02T00:22:13;99307.16;;;2.45;69.32
64053;BME280;50299;49.524;8.536;2024-03-02T00:24:40;99304.94;;;2.48;69.11
64053;BME280;50299;49.524;8.536;2024-03-02T00:27:07;99300.50;;;2.52;68.92
64053;BME280;50299;49.524;8.536;2024-03-02T00:29:34;99293.13;;;2.52;69.84
64053;BME280;50299;49.524;8.536;2024-03-02T00:32:01;99301.41;;;2.47;70.05
64053;BME280;50299;49.524;8.536;2024-03-02T00:34:28;99298.88;;;2.37;70.13
64053;BME280;50299;49.524;8.536;2024-03-02T00:36:57;99299.88;;;2.41;69.38
64053;BME280;50299;49.524;8.536;2024-03-02T00:39:26;99296.47;;;2.35;69.88
64053;BME280;50299;49.524;8.536;2024-03-02T00:41:52;99307.38;;;2.35;69.51
64053;BME280;50299;49.524;8.536;2024-03-02T00:44:21;99314.13;;;2.38;70.08
64053;BME280;50299;49.524;8.536;2024-03-02T00:46:50;99307.84;;;2.37;69.52
64053;BME280;50299;49.524;8.536;2024-03-02T00:49:25;99310.78;;;2.41;69.39
64053;BME280;50299;49.524;8.536;2024-03-02T00:51:54;99309.56;;;2.33;69.72
64053;BME280;50299;49.524;8.536;2024-03-02T00:54:27;99308.28;;;2.31;69.42
64053;BME280;50299;49.524;8.536;2024-03-02T00:56:55;99311.06;;;2.26;70.04
64053;BME280;50299;49.524;8.536;2024-03-02T00:59:23;99307.75;;;2.29;70.22
64053;BME280;50299;49.524;8.536;2024-03-02T01:01:49;99313.72;;;2.31;69.38
64053;BME280;50299;49.524;8.536;2024-03-02T01:04:16;99320.47;;;2.33;68.01
64053;BME280;50299;49.524;8.536;2024-03-02T01:06:42;99323.00;;;2.30;67.50
64053;BME280;50299;49.524;8.536;2024-03-02T01:09:10;99316.53;;;2.26;68.04
64053;BME280;50299;49.524;8.536;2024-03-02T01:11:38;99320.97;;;2.22;68.18
64053;BME280;50299;49.524;8.536;2024-03-02T01:14:06;99327.31;;;2.17;69.57
64053;BME280;50299;49.524;8.536;2024-03-02T01:16:32;99328.84;;;2.09;69.30
64053;BME280;50299;49.524;8.536;2024-03-02T01:19:01;99328.75;;;2.14;68.92
64053;BME280;50299;49.524;8.536;2024-03-02T01:21:28;99324.91;;;2.15;68.25
64053;BME280;50299;49.524;8.536;2024-03-02T01:23:55;99329.88;;;2.13;69.09
64053;BME280;50299;49.524;8.536;2024-03-02T01:26:21;99323.91;;;2.11;68.06
64053;BME280;50299;49.524;8.536;2024-03-02T01:28:48;99320.94;;;2.08;67.95
64053;BME280;50299;49.524;8.536;2024-03-02T01:31:15;99324.28;;;2.05;68.24
64053;BME280;50299;49.524;8.536;2024-03-02T01:33:41;99320.25;;;2.02;68.02
64053;BME280;50299;49.524;8.536;2024-03-02T01:36:07;99314.56;;;1.99;68.86
64053;BME280;50299;49.524;8.536;2024-03-02T01:38:37;99317.63;;;1.97;70.78
64053;BME280;50299;49.524;8.536;2024-03-02T01:41:04;99310.25;;;1.98;70.97
64053;BME280;50299;49.524;8.536;2024-03-02T01:43:30;99311.31;;;1.97;70.95
64053;BME280;50299;49.524;8.536;2024-03-02T01:45:56;99299.22;;;1.89;72.10
64053;BME280;50299;49.524;8.536;2024-03-02T01:48:23;99301.53;;;1.95;71.30
64053;BME280;50299;49.524;8.536;2024-03-02T01:50:50;99290.53;;;2.01;70.63
64053;BME280;50299;49.524;8.536;2024-03-02T01:53:16;99289.72;;;2.00;71.14
64053;BME280;50299;49.524;8.536;2024-03-02T01:55:43;99287.13;;;2.09;70.80
64053;BME280;50299;49.524;8.536;2024-03-02T01:58:09;99295.03;;;2.10;70.09
64053;BME280;50299;49.524;8.536;2024-03-02T02:00:36;99284.59;;;2.12;70.14
64053;BME280;50299;49.524;8.536;2024-03-02T02:03:03;99281.66;;;2.09;69.48
64053;BME280;50299;49.524;8.536;2024-03-02T02:05:30;99278.25;;;2.03;69.96
64053;BME280;50299;49.524;8.536;2024-03-02T02:07:57;99275.91;;;1.97;69.61
64053;BME280;50299;49.524;8.536;2024-03-02T02:10:27;99281.16;;;1.93;69.32
64053;BME280;50299;49.524;8.536;2024-03-02T02:12:54;99279.31;;;1.88;70.30
64053;BME280;50299;49.524;8.536;2024-03-02T02:15:25;99283.47;;;1.86;70.40
64053;BME280;50299;49.524;8.536;2024-03-02T02:17:52;99283.34;;;1.91;69.95
64053;BME280;50299;49.524;8.536;2024-03-02T02:20:19;99269.41;;;1.92;69.74
64053;BME280;50299;49.524;8.536;2024-03-02T02:23:12;99271.06;;;1.93;69.24
64053;BME280;50299;49.524;8.536;2024-03-02T02:25:39;99276.00;;;1.91;70.08
64053;BME280;50299;49.524;8.536;2024-03-02T02:28:06;99268.63;;;1.92;69.00
64053;BME280;50299;49.524;8.536;2024-03-02T02:30:32;99265.63;;;1.93;68.69
64053;BME280;50299;49.524;8.536;2024-03-02T02:32:59;99260.16;;;1.93;68.98
64053;BME280;50299;49.524;8.536;2024-03-02T02:35:26;99258.84;;;1.91;69.64
64053;BME280;50299;49.524;8.536;2024-03-02T02:37:54;99265.63;;;1.93;68.67
64053;BME280;50299;49.524;8.536;2024-03-02T02:40:22;99262.09;;;1.93;68.41
64053;BME280;50299;49.524;8.536;2024-03-02T02:42:48;99255.09;;;1.87;70.45
64053;BME280;50299;49.524;8.536;2024-03-02T02:45:15;99256.16;;;1.72;70.24
64053;BME280;50299;49.524;8.536;2024-03-02T02:47:42;99261.09;;;1.70;70.26
64053;BME280;50299;49.524;8.536;2024-03-02T02:50:10;99257.56;;;1.69;70.81
64053;BME280;50299;49.524;8.536;2024-03-02T02:52:39;99252.56;;;1.77;71.26
64053;BME280;50299;49.524;8.536;2024-03-02T02:55:08;99255.91;;;1.87;69.90
64053;BME280;50299;49.524;8.536;2024-03-02T02:57:39;99261.56;;;1.91;68.66
64053;BME280;50299;49.524;8.536;2024-03-02T03:00:37;99260.53;;;1.87;69.61
64053;BME280;50299;49.524;8.536;2024-03-02T03:03:04;99254.59;;;1.85;68.92
64053;BME280;50299;49.524;8.536;2024-03-02T03:05:30;99256.78;;;1.83;69.37
64053;BME280;50299;49.524;8.536;2024-03-02T03:07:57;99257.59;;;1.83;69.25
64053;BME280;50299;49.524;8.536;2024-03-02T03:10:24;99251.03;;;1.84;69.75
64053;BME280;50299;49.524;8.536;2024-03-02T03:12:52;99246.41;;;1.85;70.04
64053;BME280;50299;49.524;8.536;2024-03-02T03:15:19;99239.53;;;1.87;69.83
64053;BME280;50299;49.524;8.536;2024-03-02T03:17:45;99248.84;;;1.86;69.72
64053;BME280;50299;49.524;8.536;2024-03-02T03:20:13;99242.38;;;1.82;69.09
64053;BME280;50299;49.524;8.536;2024-03-02T03:22:41;99241.34;;;1.78;69.69
64053;BME280;50299;49.524;8.536;2024-03-02T03:25:08;99243.75;;;1.80;69.88
64053;BME280;50299;49.524;8.536;2024-03-02T03:27:37;99242.97;;;1.79;68.82
64053;BME280;50299;49.524;8.536;2024-03-02T03:30:04;99251.22;;;1.74;68.89
64053;BME280;50299;49.524;8.536;2024-03-02T03:32:32;99239.63;;;1.68;69.91
64053;BME280;50299;49.524;8.536;2024-03-02T03:34:59;99228.41;;;1.70;69.98
64053;BME280;50299;49.524;8.536;2024-03-02T03:37:26;99229.75;;;1.73;68.42
64053;BME280;50299;49.524;8.536;2024-03-02T03:39:59;99229.53;;;1.69;69.35
64053;BME280;50299;49.524;8.536;2024-03-02T03:42:27;99240.44;;;1.69;68.27
64053;BME280;50299;49.524;8.536;2024-03-02T03:44:53;99241.31;;;1.64;67.83
64053;BME280;50299;49.524;8.536;2024-03-02T03:47:20;99245.44;;;1.62;67.56
64053;BME280;50299;49.524;8.536;2024-03-02T03:49:46;99238.44;;;1.56;69.02
64053;BME280;50299;49.524;8.536;2024-03-02T03:52:13;99250.78;;;1.53;68.32
64053;BME280;50299;49.524;8.536;2024-03-02T03:54:39;99250.78;;;1.53;68.55
64053;BME280;50299;49.524;8.536;2024-03-02T03:57:06;99242.59;;;1.53;68.69
64053;BME280;50299;49.524;8.536;2024-03-02T03:59:32;99245.00;;;1.55;69.33
64053;BME280;50299;49.524;8.536;2024-03-02T04:01:59;99239.06;;;1.53;69.58
64053;BME280;50299;49.524;8.536;2024-03-02T04:04:25;99239.47;;;1.60;70.34
64053;BME280;50299;49.524;8.536;2024-03-02T04:06:52;99231.13;;;1.70;70.20
64053;BME280;50299;49.524;8.536;2024-03-02T04:09:24;99231.97;;;1.84;70.66
64053;BME280;50299;49.524;8.536;2024-03-02T04:11:52;99236.44;;;1.94;70.76
64053;BME280;50299;49.524;8.536;2024-03-02T04:14:18;99234.94;;;2.02;69.67
64053;BME280;50299;49.524;8.536;2024-03-02T04:16:44;99237.88;;;2.05;69.84
64053;BME280;50299;49.524;8.536;2024-03-02T04:19:11;99238.06;;;2.09;69.78
64053;BME280;50299;49.524;8.536;2024-03-02T04:21:38;99236.44;;;2.08;68.74
64053;BME280;50299;49.524;8.536;2024-03-02T04:24:05;99240.88;;;2.04;68.87
64053;BME280;50299;49.524;8.536;2024-03-02T04:26:31;99242.00;;;2.03;68.51
64053;BME280;50299;49.524;8.536;2024-03-02T04:28:57;99236.94;;;1.96;69.73
64053;BME280;50299;49.524;8.536;2024-03-02T04:31:24;99244.19;;;2.01;69.76
64053;BME280;50299;49.524;8.536;2024-03-02T04:33:50;99244.19;;;2.01;70.54
64053;BME280;50299;49.524;8.536;2024-03-02T04:36:17;99235.53;;;1.99;69.96
64053;BME280;50299;49.524;8.536;2024-03-02T04:38:43;99241.78;;;1.99;70.20
64053;BME280;50299;49.524;8.536;2024-03-02T04:41:10;99247.94;;;1.91;69.52
64053;BME280;50299;49.524;8.536;2024-03-02T04:43:36;99244.09;;;1.92;69.40
64053;BME280;50299;49.524;8.536;2024-03-02T04:46:03;99239.63;;;1.82;69.30
64053;BME280;50299;49.524;8.536;2024-03-02T04:48:29;99238.63;;;1.78;70.61
64053;BME280;50299;49.524;8.536;2024-03-02T04:50:56;99238.94;;;1.77;69.99
64053;BME280;50299;49.524;8.536;2024-03-02T04:53:22;99250.69;;;1.72;70.59
64053;BME280;50299;49.524;8.536;2024-03-02T04:55:52;99244.66;;;1.75;70.41
64053;BME280;50299;49.524;8.536;2024-03-02T04:58:22;99250.03;;;1.80;70.58
64053;BME280;50299;49.524;8.536;2024-03-02T05:00:49;99251.66;;;1.81;70.53
64053;BME280;50299;49.524;8.536;2024-03-02T05:03:21;99262.03;;;1.79;70.55
64053;BME280;50299;49.524;8.536;2024-03-02T05:05:48;99275.84;;;1.69;71.45
64053;BME280;50299;49.524;8.536;2024-03-02T05:08:14;99267.16;;;1.67;71.09
64053;BME280;50299;49.524;8.536;2024-03-02T05:10:42;99270.41;;;1.69;70.84
64053;BME280;50299;49.524;8.536;2024-03-02T05:13:08;99273.72;;;1.66;70.71
64053;BME280;50299;49.524;8.536;2024-03-02T05:15:35;99281.34;;;1.64;70.87
64053;BME280;50299;49.524;8.536;2024-03-02T05:18:02;99278.34;;;1.65;70.89
64053;BME280;50299;49.524;8.536;2024-03-02T05:20:31;99281.97;;;1.61;70.85
64053;BME280;50299;49.524;8.536;2024-03-02T05:22:57;99274.38;;;1.58;71.71
64053;BME280;50299;49.524;8.536;2024-03-02T05:25:24;99275.50;;;1.57;71.46
64053;BME280;50299;49.524;8.536;2024-03-02T05:27:50;99281.84;;;1.52;71.57
64053;BME280;50299;49.524;8.536;2024-03-02T05:30:17;99280.06;;;1.61;71.25
64053;BME280;50299;49.524;8.536;2024-03-02T05:32:43;99277.91;;;1.58;71.93
64053;BME280;50299;49.524;8.536;2024-03-02T05:35:10;99280.84;;;1.62;71.26
64053;BME280;50299;49.524;8.536;2024-03-02T05:37:41;99286.00;;;1.63;70.62
64053;BME280;50299;49.524;8.536;2024-03-02T05:40:08;99283.00;;;1.65;70.62
64053;BME280;50299;49.524;8.536;2024-03-02T05:42:34;99279.16;;;1.66;70.26
64053;BME280;50299;49.524;8.536;2024-03-02T05:45:01;99281.66;;;1.62;70.05
64053;BME280;50299;49.524;8.536;2024-03-02T05:47:27;99278.44;;;1.60;70.34
64053;BME280;50299;49.524;8.536;2024-03-02T05:49:54;99280.16;;;1.56;70.59
64053;BME280;50299;49.524;8.536;2024-03-02T05:52:21;99276.59;;;1.56;71.12
64053;BME280;50299;49.524;8.536;2024-03-02T05:54:47;99284.69;;;1.61;70.49
64053;BME280;50299;49.524;8.536;2024-03-02T05:57:15;99277.59;;;1.60;70.26
64053;BME280;50299;49.524;8.536;2024-03-02T06:00:00;99276.31;;;1.57;69.38
64053;BME280;50299;49.524;8.536;2024-03-02T06:02:32;99280.44;;;1.55;69.99
64053;BME280;50299;49.524;8.536;2024-03-02T06:05:01;99286.97;;;1.54;69.27
64053;BME280;50299;49.524;8.536;2024-03-02T06:07:27;99298.78;;;1.49;69.17
64053;BME280;50299;49.524;8.536;2024-03-02T06:09:54;99302.09;;;1.46;70.03
64053;BME280;50299;49.524;8.536;2024-03-02T06:12:20;99300.78;;;1.43;69.05
64053;BME280;50299;49.524;8.536;2024-03-02T06:14:49;99294.50;;;1.43;68.95
64053;BME280;50299;49.524;8.536;2024-03-02T06:17:16;99304.09;;;1.40;68.38
64053;BME280;50299;49.524;8.536;2024-03-02T06:19:42;99298.81;;;1.25;69.92
64053;BME280;50299;49.524;8.536;2024-03-02T06:22:09;99294.41;;;1.29;69.43
64053;BME280;50299;49.524;8.536;2024-03-02T06:24:36;99304.72;;;1.32;69.52
64053;BME280;50299;49.524;8.536;2024-03-02T06:27:04;99303.91;;;1.32;69.48
64053;BME280;50299;49.524;8.536;2024-03-02T06:29:34;99311.78;;;1.33;68.39
64053;BME280;50299;49.524;8.536;2024-03-02T06:32:00;99315.63;;;1.32;68.24
64053;BME280;50299;49.524;8.536;2024-03-02T06:34:27;99316.50;;;1.28;67.45
64053;BME280;50299;49.524;8.536;2024-03-02T06:36:53;99319.00;;;1.24;67.33
64053;BME280;50299;49.524;8.536;2024-03-02T06:39:20;99323.09;;;1.21;67.68
64053;BME280;50299;49.524;8.536;2024-03-02T06:41:46;99325.03;;;1.21;68.13
64053;BME280;50299;49.524;8.536;2024-03-02T06:44:16;99323.09;;;1.21;68.29
64053;BME280;50299;49.524;8.536;2024-03-02T06:46:42;99320.38;;;1.21;67.83
64053;BME280;50299;49.524;8.536;2024-03-02T06:49:08;99320.38;;;1.21;68.75
64053;BME280;50299;49.524;8.536;2024-03-02T06:51:36;99316.28;;;1.24;69.69
64053;BME280;50299;49.524;8.536;2024-03-02T06:54:03;99316.78;;;1.26;69.67
64053;BME280;50299;49.524;8.536;2024-03-02T06:56:29;99317.22;;;1.33;70.10
64053;BME280;50299;49.524;8.536;2024-03-02T06:58:57;99310.84;;;1.43;69.39
64053;BME280;50299;49.524;8.536;2024-03-02T07:01:23;99319.75;;;1.49;69.25
64053;BME280;50299;49.524;8.536;2024-03-02T07:03:52;99321.88;;;1.52;69.51
64053;BME280;50299;49.524;8.536;2024-03-02T07:06:19;99328.34;;;1.56;69.11
64053;BME280;50299;49.524;8.536;2024-03-02T07:08:45;99326.66;;;1.60;69.68
64053;BME280;50299;49.524;8.536;2024-03-02T07:11:14;99327.88;;;1.67;69.52
64053;BME280;50299;49.524;8.536;2024-03-02T07:13:40;99331.84;;;1.75;70.28
64053;BME280;50299;49.524;8.536;2024-03-02T07:16:07;99325.94;;;1.87;70.52
64053;BME280;50299;49.524;8.536;2024-03-02T07:18:52;99336.06;;;2.00;70.70
64053;BME280;50299;49.524;8.536;2024-03-02T07:21:19;99325.69;;;2.02;70.09
64053;BME280;50299;49.524;8.536;2024-03-02T07:23:45;99333.19;;;2.10;70.68
64053;BME280;50299;49.524;8.536;2024-03-02T07:26:12;99328.97;;;2.18;70.66
64053;BME280;50299;49.524;8.536;2024-03-02T07:28:41;99325.13;;;2.33;70.23
64053;BME280;50299;49.524;8.536;2024-03-02T07:31:08;99324.47;;;2.55;70.47
64053;BME280;50299;49.524;8.536;2024-03-02T07:33:36;99333.81;;;3.04;70.30
64053;BME280;50299;49.524;8.536;2024-03-02T07:36:03;99334.59;;;3.90;68.67
64053;BME280;50299;49.524;8.536;2024-03-02T07:38:31;99341.13;;;4.74;66.44
64053;BME280;50299;49.524;8.536;2024-03-02T07:40:58;99343.88;;;5.49;65.22
64053;BME280;50299;49.524;8.536;2024-03-02T07:43:25;99345.78;;;6.26;64.50
64053;BME280;50299;49.524;8.536;2024-03-02T07:45:52;99346.25;;;7.05;62.99
64053;BME280;50299;49.524;8.536;2024-03-02T07:48:19;99357.19;;;7.64;60.09
64053;BME280;50299;49.524;8.536;2024-03-02T07:50:45;99361.78;;;8.14;59.16
64053;BME280;50299;49.524;8.536;2024-03-02T07:53:12;99361.78;;;8.47;59.23
64053;BME280;50299;49.524;8.536;2024-03-02T07:55:39;99363.34;;;8.94;58.40
64053;BME280;50299;49.524;8.536;2024-03-02T07:58:06;99362.75;;;9.12;56.37
64053;BME280;50299;49.524;8.536;2024-03-02T08:00:33;99365.13;;;9.51;56.12
64053;BME280;50299;49.524;8.536;2024-03-02T08:03:00;99366.28;;;9.90;54.43
64053;BME280;50299;49.524;8.536;2024-03-02T08:05:27;99367.72;;;10.12;52.97
64053;BME280;50299;49.524;8.536;2024-03-02T08:07:53;99365.03;;;10.16;53.67
64053;BME280;50299;49.524;8.536;2024-03-02T08:10:20;99364.53;;;9.98;52.76
64053;BME280;50299;49.524;8.536;2024-03-02T08:12:46;99369.09;;;10.06;53.17
64053;BME280;50299;49.524;8.536;2024-03-02T08:15:13;99373.13;;;10.52;53.28
64053;BME280;50299;49.524;8.536;2024-03-02T08:17:40;99364.31;;;11.10;52.54
64053;BME280;50299;49.524;8.536;2024-03-02T08:20:15;99375.38;;;11.61;50.88
64053;BME280;50299;49.524;8.536;2024-03-02T08:22:41;99370.72;;;12.23;49.45
64053;BME280;50299;49.524;8.536;2024-03-02T08:25:08;99378.47;;;12.14;47.83
64053;BME280;50299;49.524;8.536;2024-03-02T08:27:35;99369.78;;;11.96;48.72
64053;BME280;50299;49.524;8.536;2024-03-02T08:30:03;99372.16;;;11.59;48.46
64053;BME280;50299;49.524;8.536;2024-03-02T08:32:33;99371.66;;;11.38;49.28
64053;BME280;50299;49.524;8.536;2024-03-02T08:34:59;99363.47;;;11.41;49.10
64053;BME280;50299;49.524;8.536;2024-03-02T08:37:26;99368.47;;;11.35;51.28
64053;BME280;50299;49.524;8.536;2024-03-02T08:39:53;99365.81;;;11.23;48.82
64053;BME280;50299;49.524;8.536;2024-03-02T08:42:20;99366.28;;;11.09;49.97
64053;BME280;50299;49.524;8.536;2024-03-02T08:44:47;99370.50;;;10.88;49.77
64053;BME280;50299;49.524;8.536;2024-03-02T08:47:13;99370.63;;;10.63;51.38
64053;BME280;50299;49.524;8.536;2024-03-02T08:49:40;99371.06;;;10.33;49.08
64053;BME280;50299;49.524;8.536;2024-03-02T08:52:06;99371.53;;;10.23;48.10
64053;BME280;50299;49.524;8.536;2024-03-02T08:54:33;99367.78;;;10.16;52.46
64053;BME280;50299;49.524;8.536;2024-03-02T08:57:00;99371.59;;;10.11;53.77
64053;BME280;50299;49.524;8.536;2024-03-02T08:59:29;99366.38;;;10.22;54.50
64053;BME280;50299;49.524;8.536;2024-03-02T09:01:56;99360.63;;;10.43;54.73
64053;BME280;50299;49.524;8.536;2024-03-02T09:04:23;99356.13;;;10.66;53.72
64053;BME280;50299;49.524;8.536;2024-03-02T09:06:53;99354.06;;;10.63;53.81
64053;BME280;50299;49.524;8.536;2024-03-02T09:09:19;99358.44;;;11.12;52.53
64053;BME280;50299;49.524;8.536;2024-03-02T09:11:46;99357.97;;;11.60;51.31
64053;BME280;50299;49.524;8.536;2024-03-02T09:14:13;99356.50;;;12.25;51.87
64053;BME280;50299;49.524;8.536;2024-03-02T09:16:41;99360.00;;;12.87;48.81
64053;BME280;50299;49.524;8.536;2024-03-02T09:19:08;99364.91;;;13.47;48.76
64053;BME280;50299;49.524;8.536;2024-03-02T09:21:36;99354.50;;;14.00;46.11
64053;BME280;50299;49.524;8.536;2024-03-02T09:24:02;99358.84;;;14.31;46.42
64053;BME280;50299;49.524;8.536;2024-03-02T09:26:29;99363.84;;;14.52;44.63
64053;BME280;50299;49.524;8.536;2024-03-02T09:28:59;99364.97;;;14.92;44.46
64053;BME280;50299;49.524;8.536;2024-03-02T09:31:25;99359.19;;;15.12;42.22
64053;BME280;50299;49.524;8.536;2024-03-02T09:33:52;99354.22;;;15.39;40.74
64053;BME280;50299;49.524;8.536;2024-03-02T09:36:20;99362.66;;;15.53;39.19
64053;BME280;50299;49.524;8.536;2024-03-02T09:38:47;99358.59;;;15.40;40.38
64053;BME280;50299;49.524;8.536;2024-03-02T09:41:14;99360.34;;;15.69;40.18
64053;BME280;50299;49.524;8.536;2024-03-02T09:43:41;99362.81;;;15.85;41.22
64053;BME280;50299;49.524;8.536;2024-03-02T09:46:09;99351.34;;;15.94;39.80
64053;BME280;50299;49.524;8.536;2024-03-02T09:48:37;99352.59;;;16.11;38.55
64053;BME280;50299;49.524;8.536;2024-03-02T09:51:05;99353.44;;;16.25;39.58
64053;BME280;50299;49.524;8.536;2024-03-02T09:53:32;99335.13;;;16.35;40.09
64053;BME280;50299;49.524;8.536;2024-03-02T09:56:01;99340.72;;;16.42;37.20
64053;BME280;50299;49.524;8.536;2024-03-02T09:58:28;99350.66;;;16.33;35.93
64053;BME280;50299;49.524;8.536;2024-03-02T10:00:55;99344.63;;;16.16;37.34
64053;BME280;50299;49.524;8.536;2024-03-02T10:03:23;99345.19;;;15.60;36.06
64053;BME280;50299;49.524;8.536;2024-03-02T10:05:51;99348.66;;;15.39;37.74
64053;BME280;50299;49.524;8.536;2024-03-02T10:08:18;99351.69;;;14.71;34.29
64053;BME280;50299;49.524;8.536;2024-03-02T10:10:44;99342.22;;;14.79;36.87
64053;BME280;50299;49.524;8.536;2024-03-02T10:13:12;99346.06;;;14.64;37.28
64053;BME280;50299;49.524;8.536;2024-03-02T10:15:40;99332.75;;;14.43;37.56
64053;BME280;50299;49.524;8.536;2024-03-02T10:18:10;99333.63;;;14.14;38.49
64053;BME280;50299;49.524;8.536;2024-03-02T10:20:41;99330.31;;;14.38;40.56
64053;BME280;50299;49.524;8.536;2024-03-02T10:23:13;99327.91;;;14.33;39.62
64053;BME280;50299;49.524;8.536;2024-03-02T10:25:40;99326.91;;;14.52;41.09
64053;BME280;50299;49.524;8.536;2024-03-02T10:28:20;99329.56;;;14.41;41.41
64053;BME280;50299;49.524;8.536;2024-03-02T10:30:47;99332.38;;;14.45;40.38
64053;BME280;50299;49.524;8.536;2024-03-02T10:33:17;99326.66;;;14.71;42.96
64053;BME280;50299;49.524;8.536;2024-03-02T10:35:43;99328.78;;;14.89;39.14
64053;BME280;50299;49.524;8.536;2024-03-02T10:38:11;99323.28;;;14.96;40.01
64053;BME280;50299;49.524;8.536;2024-03-02T10:40:37;99326.19;;;15.10;39.99
64053;BME280;50299;49.524;8.536;2024-03-02T10:43:04;99325.88;;;15.19;38.73
64053;BME280;50299;49.524;8.536;2024-03-02T10:45:32;99321.56;;;15.32;39.20
64053;BME280;50299;49.524;8.536;2024-03-02T10:48:01;99321.19;;;15.37;36.56
64053;BME280;50299;49.524;8.536;2024-03-02T10:50:29;99310.19;;;15.62;41.74
64053;BME280;50299;49.524;8.536;2024-03-02T10:52:56;99303.47;;;15.74;38.65
64053;BME280;50299;49.524;8.536;2024-03-02T10:55:22;99308.34;;;15.95;40.80
64053;BME280;50299;49.524;8.536;2024-03-02T10:57:53;99310.38;;;16.05;38.34
64053;BME280;50299;49.524;8.536;2024-03-02T11:00:21;99305.97;;;15.97;37.42
64053;BME280;50299;49.524;8.536;2024-03-02T11:03:03;99298.81;;;16.03;36.33
64053;BME280;50299;49.524;8.536;2024-03-02T11:05:36;99301.44;;;15.71;35.47
64053;BME280;50299;49.524;8.536;2024-03-02T11:08:07;99302.13;;;15.46;35.25
64053;BME280;50299;49.524;8.536;2024-03-02T11:10:35;99299.09;;;15.76;39.59
64053;BME280;50299;49.524;8.536;2024-03-02T11:13:09;99295.13;;;15.81;36.06
64053;BME280;50299;49.524;8.536;2024-03-02T11:15:40;99294.13;;;15.38;36.05
64053;BME280;50299;49.524;8.536;2024-03-02T11:18:10;99288.66;;;15.52;35.64
64053;BME280;50299;49.524;8.536;2024-03-02T11:20:38;99287.94;;;15.69;36.91
64053;BME280;50299;49.524;8.536;2024-03-02T11:23:07;99288.97;;;15.36;36.04
64053;BME280;50299;49.524;8.536;2024-03-02T11:25:34;99288.56;;;15.38;36.85
64053;BME280;50299;49.524;8.536;2024-03-02T11:28:03;99286.13;;;15.25;34.80
64053;BME280;50299;49.524;8.536;2024-03-02T11:33:04;99275.41;;;15.27;36.82
64053;BME280;50299;49.524;8.536;2024-03-02T11:35:42;99269.72;;;15.10;35.37
64053;BME280;50299;49.524;8.536;2024-03-02T11:38:11;99257.91;;;15.34;36.53
64053;BME280;50299;49.524;8.536;2024-03-02T11:40:41;99255.91;;;15.27;35.29
64053;BME280;50299;49.524;8.536;2024-03-02T11:43:13;99259.16;;;15.40;35.62
64053;BME280;50299;49.524;8.536;2024-03-02T11:45:42;99254.31;;;15.30;35.21
64053;BME280;50299;49.524;8.536;2024-03-02T11:48:16;99255.06;;;14.61;35.15
64053;BME280;50299;49.524;8.536;2024-03-02T11:50:49;99249.75;;;14.97;37.80
64053;BME280;50299;49.524;8.536;2024-03-02T11:53:20;99253.91;;;15.24;38.16
64053;BME280;50299;49.524;8.536;2024-03-02T11:55:47;99248.44;;;15.46;38.52
64053;BME280;50299;49.524;8.536;2024-03-02T11:58:17;99250.84;;;15.47;34.29
64053;BME280;50299;49.524;8.536;2024-03-02T12:00:54;99243.91;;;15.16;35.21
64053;BME280;50299;49.524;8.536;2024-03-02T12:03:24;99236.66;;;15.01;36.73
64053;BME280;50299;49.524;8.536;2024-03-02T12:05:55;99228.06;;;15.27;38.09
64053;BME280;50299;49.524;8.536;2024-03-02T12:08:22;99224.91;;;15.29;34.80
64053;BME280;50299;49.524;8.536;2024-03-02T12:10:59;99218.34;;;14.96;36.40
64053;BME280;50299;49.524;8.536;2024-03-02T12:13:27;99224.63;;;14.83;35.54
64053;BME280;50299;49.524;8.536;2024-03-02T12:15:55;99213.06;;;14.77;34.20
64053;BME280;50299;49.524;8.536;2024-03-02T12:18:22;99218.63;;;14.77;37.65
64053;BME280;50299;49.524;8.536;2024-03-02T12:20:50;99210.53;;;15.16;35.89
64053;BME280;50299;49.524;8.536;2024-03-02T12:23:22;99212.91;;;15.14;37.97
64053;BME280;50299;49.524;8.536;2024-03-02T12:25:49;99212.22;;;15.46;38.44
64053;BME280;50299;49.524;8.536;2024-03-02T12:28:16;99210.66;;;15.48;35.54
64053;BME280;50299;49.524;8.536;2024-03-02T12:30:42;99207.09;;;15.51;36.51
64053;BME280;50299;49.524;8.536;2024-03-02T12:33:10;99213.41;;;15.41;35.42
64053;BME280;50299;49.524;8.536;2024-03-02T12:35:40;99202.72;;;15.54;34.96
64053;BME280;50299;49.524;8.536;2024-03-02T12:38:07;99205.91;;;15.52;34.76
64053;BME280;50299;49.524;8.536;2024-03-02T12:40:34;99200.00;;;15.79;36.76
64053;BME280;50299;49.524;8.536;2024-03-02T12:43:00;99203.19;;;15.77;34.54
64053;BME280;50299;49.524;8.536;2024-03-02T12:45:27;99195.50;;;15.35;33.02
64053;BME280;50299;49.524;8.536;2024-03-02T12:47:53;99195.16;;;15.51;31.44
64053;BME280;50299;49.524;8.536;2024-03-02T12:50:21;99195.97;;;15.66;36.08
64053;BME280;50299;49.524;8.536;2024-03-02T12:52:54;99189.28;;;15.88;35.52
64053;BME280;50299;49.524;8.536;2024-03-02T12:55:24;99175.38;;;16.02;34.94
64053;BME280;50299;49.524;8.536;2024-03-02T12:57:54;99178.97;;;16.35;36.55
64053;BME280;50299;49.524;8.536;2024-03-02T13:00:21;99185.31;;;16.61;34.46
64053;BME280;50299;49.524;8.536;2024-03-02T13:02:49;99177.34;;;16.45;33.73
64053;BME280;50299;49.524;8.536;2024-03-02T13:05:17;99168.56;;;16.64;35.99
64053;BME280;50299;49.524;8.536;2024-03-02T13:07:43;99172.97;;;16.76;35.40
64053;BME280;50299;49.524;8.536;2024-03-02T13:10:12;99172.59;;;15.99;33.76
64053;BME280;50299;49.524;8.536;2024-03-02T13:12:39;99165.44;;;16.34;35.09
64053;BME280;50299;49.524;8.536;2024-03-02T13:15:05;99165.41;;;16.44;34.92